createdAt,value
2023-03-31T00:02:14.169Z,2.28
2023-03-31T00:04:46.624Z,1.88
2023-03-31T00:07:16.630Z,2.33
2023-03-31T00:09:46.421Z,1.75
2023-03-31T00:12:14.045Z,2.17
2023-03-31T00:14:41.334Z,1.30
2023-03-31T00:17:08.818Z,2.45
2023-03-31T00:19:35.876Z,1.80
2023-03-31T00:22:02.576Z,1.88
2023-03-31T00:24:32.793Z,1.85
2023-03-31T00:27:00.662Z,1.80
2023-03-31T00:29:27.320Z,1.42
2023-03-31T00:31:55.200Z,1.88
2023-03-31T00:34:22.222Z,1.70
2023-03-31T00:36:48.799Z,1.77
2023-03-31T00:39:18.088Z,2.05
2023-03-31T00:41:45.251Z,1.67
2023-03-31T00:44:24.598Z,1.90
2023-03-31T00:47:12.345Z,1.40
2023-03-31T00:49:45.793Z,2.42
2023-03-31T00:52:19.662Z,1.38
2023-03-31T00:54:49.674Z,2.08
2023-03-31T00:57:16.740Z,2.08
2023-03-31T00:59:48.642Z,2.00
2023-03-31T01:02:15.882Z,2.00
2023-03-31T01:04:46.415Z,1.80
2023-03-31T01:07:33.682Z,1.85
2023-03-31T01:10:02.036Z,1.38
2023-03-31T01:12:28.665Z,1.30
2023-03-31T01:14:55.608Z,1.95
2023-03-31T01:17:22.932Z,2.00
2023-03-31T01:20:27.294Z,1.67
2023-03-31T01:23:27.927Z,1.60
2023-03-31T01:25:54.429Z,1.90
2023-03-31T01:28:36.224Z,1.88
2023-03-31T01:31:24.321Z,1.90
2023-03-31T01:34:09.056Z,1.67
2023-03-31T01:36:53.901Z,1.67
2023-03-31T01:39:43.679Z,1.92
2023-03-31T01:42:37.727Z,1.88
2023-03-31T01:45:13.612Z,1.80
2023-03-31T01:47:58.180Z,2.40
2023-03-31T01:50:46.687Z,1.95
2023-03-31T01:53:22.586Z,2.30
2023-03-31T01:56:07.698Z,1.80
2023-03-31T01:58:43.510Z,1.92
2023-03-31T02:01:14.846Z,1.85
2023-03-31T02:04:09.530Z,1.50
2023-03-31T02:06:39.944Z,1.88
2023-03-31T02:09:11.276Z,1.77
2023-03-31T02:11:39.053Z,1.73
2023-03-31T02:14:10.200Z,2.05
2023-03-31T02:16:41.980Z,1.63
2023-03-31T02:19:09.722Z,2.05
2023-03-31T02:21:39.155Z,1.27
2023-03-31T02:24:11.974Z,1.30
2023-03-31T02:26:42.865Z,1.40
2023-03-31T02:29:09.642Z,1.63
2023-03-31T02:31:57.888Z,1.50
2023-03-31T02:37:19.451Z,1.90
2023-03-31T02:39:48.324Z,1.60
2023-03-31T02:42:15.347Z,1.55
2023-03-31T02:44:42.203Z,1.65
2023-03-31T02:47:14.198Z,1.65
2023-03-31T02:49:45.090Z,1.67
2023-03-31T02:52:39.470Z,1.67
2023-03-31T02:55:22.857Z,1.77
2023-03-31T02:58:01.871Z,1.83
2023-03-31T03:01:01.316Z,1.60
2023-03-31T03:03:54.951Z,1.50
2023-03-31T03:06:37.707Z,1.73
2023-03-31T03:09:07.171Z,1.20
2023-03-31T03:12:08.300Z,1.60
2023-03-31T03:14:51.054Z,1.80
2023-03-31T03:17:34.876Z,1.45
2023-03-31T03:20:07.996Z,1.80
2023-03-31T03:22:34.731Z,1.52
2023-03-31T03:25:01.532Z,1.45
2023-03-31T03:27:28.509Z,1.95
2023-03-31T03:29:55.115Z,1.50
2023-03-31T03:32:21.702Z,2.63
2023-03-31T03:34:48.293Z,1.50
2023-03-31T03:37:14.861Z,1.50
2023-03-31T03:39:41.510Z,1.70
2023-03-31T03:42:08.111Z,1.67
2023-03-31T03:44:34.675Z,1.92
2023-03-31T03:47:01.236Z,1.48
2023-03-31T03:49:27.936Z,2.10
2023-03-31T03:51:54.490Z,1.45
2023-03-31T03:54:21.295Z,1.58
2023-03-31T03:56:47.966Z,1.85
2023-03-31T03:59:14.684Z,1.80
2023-03-31T04:01:41.385Z,1.75
2023-03-31T04:04:08.237Z,1.67
2023-03-31T04:06:34.855Z,1.95
2023-03-31T04:09:02.025Z,1.67
2023-03-31T04:11:28.736Z,1.73
2023-03-31T04:13:55.346Z,1.60
2023-03-31T04:16:23.208Z,1.45
2023-03-31T04:18:49.813Z,1.70
2023-03-31T04:21:22.916Z,1.85
2023-03-31T04:24:04.666Z,2.17
2023-03-31T04:26:42.675Z,1.63
2023-03-31T04:29:12.726Z,1.73
2023-03-31T04:31:42.951Z,1.98
2023-03-31T04:34:14.181Z,1.55
2023-03-31T04:36:42.719Z,2.00
2023-03-31T04:41:37.592Z,2.03
2023-03-31T04:44:04.452Z,2.60
2023-03-31T04:46:31.630Z,2.50
2023-03-31T04:48:59.311Z,2.97
2023-03-31T04:51:25.994Z,2.60
2023-03-31T04:53:52.589Z,2.40
2023-03-31T04:56:19.142Z,2.70
2023-03-31T04:58:45.892Z,2.72
2023-03-31T05:01:18.313Z,2.40
2023-03-31T05:03:47.979Z,2.72
2023-03-31T05:06:16.120Z,2.55
2023-03-31T05:08:43.063Z,3.10
2023-03-31T05:11:09.674Z,3.00
2023-03-31T05:13:36.253Z,2.28
2023-03-31T05:16:10.928Z,2.60
2023-03-31T05:18:37.993Z,2.70
2023-03-31T05:21:14.994Z,2.78
2023-03-31T05:23:41.936Z,2.70
2023-03-31T05:26:09.075Z,3.05
2023-03-31T05:28:36.208Z,2.92
2023-03-31T05:31:03.621Z,3.08
2023-03-31T05:33:30.236Z,2.50
2023-03-31T05:35:57.632Z,2.80
2023-03-31T05:38:24.281Z,2.55
2023-03-31T05:40:50.931Z,2.20
2023-03-31T05:43:17.518Z,3.10
2023-03-31T05:45:44.192Z,2.53
2023-03-31T05:48:10.876Z,2.30
2023-03-31T05:50:37.534Z,3.35
2023-03-31T05:53:04.497Z,2.50
2023-03-31T05:55:33.511Z,2.60
2023-03-31T05:58:00.613Z,2.10
2023-03-31T06:00:27.202Z,2.80
2023-03-31T06:02:53.863Z,2.17
2023-03-31T06:05:20.812Z,1.85
2023-03-31T06:07:47.398Z,2.42
2023-03-31T06:10:14.061Z,2.42
2023-03-31T06:12:40.810Z,2.45
2023-03-31T06:15:07.973Z,2.33
2023-03-31T06:17:35.679Z,2.65
2023-03-31T06:20:16.015Z,2.60
2023-03-31T06:22:51.003Z,2.47
2023-03-31T06:25:17.702Z,2.92
2023-03-31T06:27:44.308Z,2.60
2023-03-31T06:30:11.286Z,2.60
2023-03-31T06:32:37.932Z,2.20
2023-03-31T06:35:04.773Z,2.20
2023-03-31T06:37:31.482Z,2.35
2023-03-31T06:39:58.062Z,2.40
2023-03-31T06:42:24.593Z,2.20
2023-03-31T06:44:51.393Z,2.10
2023-03-31T06:47:17.951Z,2.13
2023-03-31T06:49:44.485Z,2.40
2023-03-31T06:52:11.231Z,2.50
2023-03-31T06:54:37.798Z,2.10
2023-03-31T06:57:04.612Z,1.90
2023-03-31T06:59:31.595Z,2.38
2023-03-31T07:01:58.438Z,2.65
2023-03-31T07:04:25.157Z,2.25
2023-03-31T07:06:52.618Z,2.67
2023-03-31T07:09:21.346Z,2.13
2023-03-31T07:11:47.894Z,2.13
2023-03-31T07:14:14.695Z,2.50
2023-03-31T07:16:41.299Z,1.90
2023-03-31T07:19:08.272Z,2.47
2023-03-31T07:21:34.828Z,1.88
2023-03-31T07:24:01.410Z,1.85
2023-03-31T07:26:28.146Z,1.90
2023-03-31T07:28:56.729Z,2.00
2023-03-31T07:33:49.845Z,1.48
2023-03-31T07:36:17.000Z,1.67
2023-03-31T07:38:45.827Z,2.00
2023-03-31T07:41:18.367Z,2.13
2023-03-31T07:43:45.599Z,2.20
2023-03-31T07:46:23.677Z,1.88
2023-03-31T07:48:51.053Z,2.05
2023-03-31T07:51:19.783Z,1.75
2023-03-31T07:53:46.548Z,1.85
2023-03-31T07:56:13.275Z,1.60
2023-03-31T07:58:39.853Z,1.80
2023-03-31T08:01:06.588Z,2.00
2023-03-31T08:03:34.449Z,1.52
2023-03-31T08:06:01.160Z,1.48
2023-03-31T08:08:27.789Z,1.60
2023-03-31T08:10:54.417Z,1.67
2023-03-31T08:13:21.087Z,1.40
2023-03-31T08:15:47.782Z,1.30
2023-03-31T08:18:14.491Z,1.08
2023-03-31T08:20:41.074Z,1.60
2023-03-31T08:23:11.383Z,1.60
2023-03-31T08:25:38.647Z,1.30
2023-03-31T08:28:06.873Z,1.10
2023-03-31T08:30:33.644Z,1.15
2023-03-31T08:33:00.605Z,1.20
2023-03-31T08:35:27.610Z,1.35
2023-03-31T08:37:54.192Z,1.27
2023-03-31T08:40:23.995Z,1.30
2023-03-31T08:42:56.357Z,1.50
2023-03-31T08:45:31.463Z,1.30
2023-03-31T08:48:04.087Z,1.60
2023-03-31T08:50:33.829Z,1.40
2023-03-31T08:53:11.162Z,1.20
2023-03-31T08:55:47.005Z,1.27
2023-03-31T08:58:18.864Z,1.20
2023-03-31T09:00:57.810Z,1.70
2023-03-31T09:03:40.880Z,1.70
2023-03-31T09:06:13.579Z,1.55
2023-03-31T09:08:43.365Z,1.27
2023-03-31T09:11:25.946Z,1.90
2023-03-31T09:13:59.747Z,1.83
2023-03-31T09:16:39.525Z,1.45
2023-03-31T09:19:17.005Z,1.73
2023-03-31T09:21:45.202Z,1.97
2023-03-31T09:24:20.776Z,1.83
2023-03-31T09:27:13.780Z,2.00
2023-03-31T09:30:04.601Z,1.90
2023-03-31T09:32:32.574Z,2.00
2023-03-31T09:35:17.576Z,2.53
2023-03-31T09:37:44.178Z,2.45
2023-03-31T09:40:17.075Z,2.63
2023-03-31T09:42:44.452Z,2.70
2023-03-31T09:45:16.477Z,2.22
2023-03-31T09:47:45.455Z,2.28
2023-03-31T09:50:12.930Z,2.28
2023-03-31T09:53:00.174Z,1.92
2023-03-31T09:55:46.396Z,2.20
2023-03-31T09:58:15.236Z,2.58
2023-03-31T10:01:00.834Z,2.17
2023-03-31T10:03:29.448Z,1.95
2023-03-31T10:08:34.448Z,1.67
2023-03-31T10:11:04.108Z,1.58
2023-03-31T10:13:47.277Z,1.60
2023-03-31T10:16:22.086Z,1.52
2023-03-31T10:18:49.920Z,1.60
2023-03-31T10:21:25.991Z,1.83
2023-03-31T10:23:53.766Z,2.08
2023-03-31T10:26:22.502Z,1.60
2023-03-31T10:28:55.247Z,1.40
2023-03-31T10:31:27.418Z,1.88
2023-03-31T10:33:54.297Z,1.75
2023-03-31T10:36:26.933Z,1.77
2023-03-31T10:38:54.192Z,1.92
2023-03-31T10:41:26.302Z,1.60
2023-03-31T10:43:55.468Z,1.77
2023-03-31T10:46:49.712Z,1.65
2023-03-31T10:49:27.356Z,1.83
2023-03-31T10:51:56.348Z,1.70
2023-03-31T10:54:23.120Z,2.00
2023-03-31T10:56:54.256Z,1.50
2023-03-31T11:02:32.669Z,2.28
2023-03-31T11:05:30.093Z,1.90
2023-03-31T11:08:24.452Z,2.90
2023-03-31T11:10:54.001Z,1.90
2023-03-31T11:13:33.964Z,1.75
2023-03-31T11:16:19.317Z,1.63
2023-03-31T11:18:51.795Z,1.95
2023-03-31T11:21:24.386Z,2.00
2023-03-31T11:24:23.318Z,2.22
2023-03-31T11:27:19.035Z,1.80
2023-03-31T11:30:00.427Z,1.98
2023-03-31T11:32:32.989Z,1.90
2023-03-31T11:35:30.861Z,1.80
2023-03-31T11:38:04.437Z,1.52
2023-03-31T11:40:43.584Z,2.33
2023-03-31T11:43:10.112Z,1.83
2023-03-31T11:45:53.756Z,2.30
2023-03-31T11:48:26.488Z,1.88
2023-03-31T11:50:53.712Z,1.90
2023-03-31T11:53:25.532Z,1.90
2023-03-31T11:55:54.151Z,2.17
2023-03-31T12:01:00.182Z,2.33
2023-03-31T12:03:49.800Z,2.40
2023-03-31T12:06:20.201Z,1.90
2023-03-31T12:09:04.614Z,2.50
2023-03-31T12:11:59.076Z,2.55
2023-03-31T12:14:41.911Z,2.97
2023-03-31T12:17:12.362Z,2.50
2023-03-31T12:19:51.021Z,2.38
2023-03-31T12:22:34.467Z,2.47
2023-03-31T12:25:01.107Z,2.42
2023-03-31T12:27:40.477Z,2.25
2023-03-31T12:30:07.503Z,2.65
2023-03-31T12:32:39.146Z,2.13
2023-03-31T12:35:22.035Z,2.33
2023-03-31T12:38:06.412Z,2.45
2023-03-31T12:40:39.221Z,2.03
2023-03-31T12:43:19.819Z,2.05
2023-03-31T12:45:59.652Z,2.33
2023-03-31T12:48:49.413Z,2.58
2023-03-31T12:51:40.708Z,2.22
2023-03-31T12:54:22.830Z,1.98
2023-03-31T12:57:01.868Z,2.30
2023-03-31T12:59:33.364Z,2.30
2023-03-31T13:02:15.499Z,2.22
2023-03-31T13:04:42.619Z,2.08
2023-03-31T13:07:36.457Z,1.85
2023-03-31T13:10:18.375Z,1.90
2023-03-31T13:13:05.787Z,1.90
2023-03-31T13:15:32.834Z,1.92
2023-03-31T13:18:01.474Z,2.10
2023-03-31T13:20:38.808Z,2.50
2023-03-31T13:23:19.901Z,2.33
2023-03-31T13:25:51.732Z,2.00
2023-03-31T13:28:44.896Z,2.30
2023-03-31T13:31:13.983Z,2.35
2023-03-31T13:33:49.672Z,1.13
2023-03-31T13:36:22.488Z,1.33
2023-03-31T13:38:53.168Z,1.60
2023-03-31T13:41:37.907Z,1.45
2023-03-31T13:44:29.485Z,1.50
2023-03-31T13:46:56.092Z,1.60
2023-03-31T13:49:52.278Z,1.70
2023-03-31T13:53:12.670Z,1.52
2023-03-31T13:56:37.563Z,1.58
2023-03-31T13:59:22.428Z,1.63
2023-03-31T14:02:21.182Z,1.60
2023-03-31T14:05:09.000Z,1.75
2023-03-31T14:07:39.164Z,2.35
2023-03-31T14:10:07.328Z,2.30
2023-03-31T14:12:35.842Z,2.25
2023-03-31T14:15:03.614Z,2.25
2023-03-31T14:17:38.036Z,2.50
2023-03-31T14:20:39.220Z,2.35
2023-03-31T14:23:50.561Z,2.50
2023-03-31T14:26:54.763Z,2.17
2023-03-31T14:29:45.748Z,1.95
2023-03-31T14:32:31.918Z,2.20
2023-03-31T14:35:04.690Z,3.00
2023-03-31T14:37:31.994Z,2.60
2023-03-31T14:39:59.126Z,2.40
2023-03-31T14:42:31.945Z,2.80
2023-03-31T14:45:02.784Z,2.50
2023-03-31T14:47:29.900Z,2.83
2023-03-31T14:50:07.830Z,3.13
2023-03-31T14:52:35.790Z,2.80
2023-03-31T14:55:02.454Z,2.42
2023-03-31T14:57:35.035Z,2.25
2023-03-31T15:00:06.059Z,2.40
2023-03-31T15:02:37.802Z,2.35
2023-03-31T15:05:07.729Z,2.47
2023-03-31T15:07:34.945Z,2.13
2023-03-31T15:10:01.976Z,2.13
2023-03-31T15:12:28.922Z,2.10
2023-03-31T15:14:58.899Z,2.53
2023-03-31T15:17:30.433Z,2.25
2023-03-31T15:19:59.055Z,2.10
2023-03-31T15:24:54.799Z,2.70
2023-03-31T15:27:36.604Z,2.00
2023-03-31T15:30:09.291Z,2.70
2023-03-31T15:32:37.530Z,2.70
2023-03-31T15:37:54.790Z,1.88
2023-03-31T15:40:24.364Z,2.50
2023-03-31T15:43:06.437Z,2.22
2023-03-31T15:45:52.840Z,2.47
2023-03-31T15:48:35.730Z,1.98
2023-03-31T15:51:06.701Z,1.75
2023-03-31T15:53:44.477Z,2.22
2023-03-31T15:56:25.185Z,1.88
2023-03-31T15:58:57.381Z,1.77
2023-03-31T16:01:29.547Z,1.90
2023-03-31T16:03:56.849Z,1.63
2023-03-31T16:06:52.718Z,1.80
2023-03-31T16:09:24.489Z,1.42
2023-03-31T16:11:54.161Z,1.92
2023-03-31T16:14:23.819Z,1.90
2023-03-31T16:16:57.172Z,1.70
2023-03-31T16:19:25.417Z,1.67
2023-03-31T16:21:53.638Z,1.67
2023-03-31T16:24:21.410Z,1.50
2023-03-31T16:26:48.836Z,1.70
2023-03-31T16:29:22.421Z,1.48
2023-03-31T16:31:49.418Z,1.70
2023-03-31T16:34:16.130Z,1.95
2023-03-31T16:36:42.984Z,1.75
2023-03-31T16:39:09.604Z,1.98
2023-03-31T16:41:37.730Z,1.88
2023-03-31T16:44:04.569Z,2.17
2023-03-31T16:46:31.231Z,1.88
2023-03-31T16:48:57.914Z,1.88
2023-03-31T16:51:24.753Z,2.17
2023-03-31T16:53:51.589Z,1.73
2023-03-31T16:56:18.144Z,1.60
2023-03-31T16:58:45.240Z,1.40
2023-03-31T17:01:12.427Z,1.58
2023-03-31T17:03:41.802Z,1.70
2023-03-31T17:06:11.920Z,1.50
2023-03-31T17:08:39.732Z,2.08
2023-03-31T17:11:12.292Z,2.13
2023-03-31T17:13:40.360Z,1.92
2023-03-31T17:16:17.547Z,2.15
2023-03-31T17:18:48.713Z,2.13
2023-03-31T17:21:19.059Z,3.03
2023-03-31T17:23:46.628Z,3.03
2023-03-31T17:26:13.885Z,1.95
2023-03-31T17:28:41.091Z,2.13
2023-03-31T17:31:16.252Z,2.45
2023-03-31T17:33:43.695Z,2.40
2023-03-31T17:36:11.246Z,2.25
2023-03-31T17:38:39.771Z,2.42
2023-03-31T17:41:08.485Z,2.80
2023-03-31T17:46:07.454Z,2.65
2023-03-31T17:48:35.373Z,2.08
2023-03-31T17:51:10.363Z,2.20
2023-03-31T17:53:36.931Z,2.50
2023-03-31T17:56:04.404Z,2.63
2023-03-31T17:58:32.250Z,2.40
2023-03-31T18:00:59.403Z,3.20
2023-03-31T18:03:29.388Z,2.30
2023-03-31T18:05:56.028Z,1.90
2023-03-31T18:08:23.087Z,3.00
2023-03-31T18:10:50.576Z,1.85
2023-03-31T18:13:17.523Z,2.17
2023-03-31T18:15:51.443Z,2.25
2023-03-31T18:18:18.734Z,2.20
2023-03-31T18:20:45.308Z,1.48
2023-03-31T18:23:12.221Z,1.75
2023-03-31T18:25:38.920Z,2.40
2023-03-31T18:28:05.509Z,1.48
2023-03-31T18:30:32.242Z,1.17
2023-03-31T18:32:59.212Z,1.55
2023-03-31T18:35:27.335Z,1.17
2023-03-31T18:37:53.995Z,1.20
2023-03-31T18:40:20.579Z,1.00
2023-03-31T18:42:48.351Z,1.20
2023-03-31T18:45:15.021Z,1.45
2023-03-31T18:47:41.629Z,1.67
2023-03-31T18:50:09.352Z,1.48
2023-03-31T18:52:36.242Z,1.30
2023-03-31T18:55:03.132Z,1.55
2023-03-31T18:57:29.891Z,1.15
2023-03-31T18:59:56.557Z,1.02
2023-03-31T19:02:24.259Z,1.60
2023-03-31T19:04:50.893Z,1.30
2023-03-31T19:07:17.646Z,1.42
2023-03-31T19:09:44.209Z,1.42
2023-03-31T19:12:11.883Z,1.55
2023-03-31T19:14:38.814Z,1.25
2023-03-31T19:17:05.419Z,1.50
2023-03-31T19:19:32.161Z,1.95
2023-03-31T19:21:58.733Z,1.42
2023-03-31T19:24:25.311Z,1.38
2023-03-31T19:26:51.867Z,1.60
2023-03-31T19:29:18.451Z,1.30
2023-03-31T19:31:47.469Z,1.60
2023-03-31T19:34:16.595Z,1.88
2023-03-31T19:36:43.684Z,1.73
2023-03-31T19:39:11.491Z,1.55
2023-03-31T19:41:38.130Z,1.67
2023-03-31T19:44:04.745Z,1.23
2023-03-31T19:46:31.428Z,1.65
2023-03-31T19:48:58.034Z,1.40
2023-03-31T19:51:24.649Z,1.45
2023-03-31T19:53:51.991Z,1.42
2023-03-31T19:56:18.629Z,1.60
2023-03-31T19:58:45.785Z,1.67
2023-03-31T20:01:17.853Z,1.40
2023-03-31T20:03:44.717Z,1.40
2023-03-31T20:06:13.741Z,1.98
2023-03-31T20:08:44.328Z,1.70
2023-03-31T20:11:13.509Z,1.70
2023-03-31T20:13:42.017Z,2.08
2023-03-31T20:16:11.183Z,1.63
2023-03-31T20:18:38.356Z,1.75
2023-03-31T20:21:11.508Z,1.67
2023-03-31T20:23:39.396Z,1.83
2023-03-31T20:26:08.935Z,1.90
2023-03-31T20:28:36.953Z,2.00
2023-03-31T20:31:11.771Z,1.90
2023-03-31T20:33:38.674Z,1.80
2023-03-31T20:36:07.704Z,1.92
2023-03-31T20:38:37.146Z,1.73
2023-03-31T20:41:04.059Z,2.03
2023-03-31T20:43:30.652Z,2.00
2023-03-31T20:46:03.264Z,1.85
2023-03-31T20:48:36.035Z,1.98
2023-03-31T20:51:02.961Z,2.35
2023-03-31T20:53:29.561Z,1.95
2023-03-31T20:55:56.111Z,2.28
2023-03-31T20:58:22.677Z,2.60
2023-03-31T21:00:49.251Z,2.63
2023-03-31T21:03:16.126Z,2.72
2023-03-31T21:05:47.929Z,2.60
2023-03-31T21:08:14.479Z,2.90
2023-03-31T21:10:44.569Z,2.35
2023-03-31T21:13:13.461Z,2.50
2023-03-31T21:15:40.379Z,2.53
2023-03-31T21:18:08.056Z,2.80
2023-03-31T21:20:35.134Z,2.50
2023-03-31T21:23:02.703Z,2.70
2023-03-31T21:25:31.925Z,2.90
2023-03-31T21:27:58.752Z,2.45
2023-03-31T21:30:25.873Z,2.40
2023-03-31T21:32:52.819Z,2.67
2023-03-31T21:35:19.542Z,2.50
2023-03-31T21:37:46.110Z,2.78
2023-03-31T21:40:14.361Z,2.83
2023-03-31T21:42:42.013Z,2.53
2023-03-31T21:45:08.954Z,2.70
2023-03-31T21:47:36.231Z,2.80
2023-03-31T21:50:02.865Z,2.67
2023-03-31T21:52:29.465Z,3.33
2023-03-31T21:54:56.333Z,3.28
2023-03-31T21:57:22.931Z,3.55
2023-03-31T21:59:49.485Z,3.33
2023-03-31T22:02:16.113Z,3.58
2023-03-31T22:04:42.947Z,3.42
2023-03-31T22:07:09.522Z,3.60
2023-03-31T22:09:36.514Z,3.47
2023-03-31T22:12:03.069Z,3.50
2023-03-31T22:14:29.610Z,3.80
2023-03-31T22:16:56.744Z,3.22
2023-03-31T22:19:23.368Z,3.60
2023-03-31T22:21:50.420Z,4.00
2023-03-31T22:24:17.057Z,3.75
2023-03-31T22:26:43.722Z,3.83
2023-03-31T22:29:14.594Z,3.60
2023-03-31T22:31:41.473Z,4.03
2023-03-31T22:34:08.059Z,3.88
2023-03-31T22:36:34.619Z,3.83
2023-03-31T22:39:01.445Z,3.50
2023-03-31T22:41:28.062Z,4.10
2023-03-31T22:43:54.670Z,3.45
2023-03-31T22:46:21.223Z,3.53
2023-03-31T22:48:49.563Z,4.50
2023-03-31T22:51:17.387Z,3.75
2023-03-31T22:53:43.997Z,3.50
2023-03-31T22:56:12.265Z,3.75
2023-03-31T22:58:38.950Z,3.15
2023-03-31T23:01:07.106Z,3.70
2023-03-31T23:03:33.826Z,4.03
2023-03-31T23:06:05.302Z,3.67
2023-03-31T23:08:32.104Z,3.05
2023-03-31T23:10:59.912Z,2.95
2023-03-31T23:13:27.201Z,3.88
2023-03-31T23:15:54.221Z,2.45
2023-03-31T23:18:22.068Z,2.80
2023-03-31T23:20:48.743Z,2.53
2023-03-31T23:23:16.666Z,3.00
2023-03-31T23:25:43.205Z,2.80
2023-03-31T23:28:09.771Z,2.30
2023-03-31T23:30:36.310Z,3.50
2023-03-31T23:33:02.861Z,2.83
2023-03-31T23:35:29.513Z,2.30
2023-03-31T23:37:56.107Z,2.40
2023-03-31T23:40:22.790Z,2.15
2023-03-31T23:42:49.349Z,2.50
2023-03-31T23:45:16.140Z,3.17
2023-03-31T23:47:42.761Z,3.20
2023-03-31T23:50:10.105Z,2.90
2023-03-31T23:52:36.814Z,3.80
2023-03-31T23:55:04.447Z,3.60
2023-03-31T23:57:31.202Z,4.20
2023-03-31T23:59:57.819Z,3.47
